createdAt,value
2023-03-16T00:01:03.723Z,7.00
2023-03-16T00:03:31.460Z,7.00
2023-03-16T00:06:00.501Z,7.00
2023-03-16T00:08:28.142Z,7.10
2023-03-16T00:10:55.774Z,7.10
2023-03-16T00:13:24.968Z,7.10
2023-03-16T00:15:55.290Z,7.10
2023-03-16T00:18:27.341Z,7.10
2023-03-16T00:21:00.020Z,7.20
2023-03-16T00:23:27.783Z,7.10
2023-03-16T00:25:59.821Z,7.20
2023-03-16T00:28:28.820Z,7.20
2023-03-16T00:30:59.429Z,7.20
2023-03-16T00:33:28.299Z,7.30
2023-03-16T00:36:05.173Z,7.30
2023-03-16T00:38:35.191Z,10.20
2023-03-16T00:41:04.184Z,7.30
2023-03-16T00:43:40.824Z,7.40
2023-03-16T00:46:11.583Z,7.40
2023-03-16T00:48:42.607Z,7.40
2023-03-16T00:51:13.476Z,7.40
2023-03-16T00:53:45.658Z,7.40
2023-03-16T00:56:14.306Z,7.40
2023-03-16T00:58:43.344Z,7.40
2023-03-16T01:01:13.880Z,7.40
2023-03-16T01:03:41.966Z,7.40
2023-03-16T01:06:17.078Z,7.50
2023-03-16T01:11:19.048Z,7.50
2023-03-16T01:13:54.313Z,7.50
2023-03-16T01:16:25.006Z,7.50
2023-03-16T01:18:53.839Z,7.50
2023-03-16T01:21:21.865Z,7.50
2023-03-16T01:23:53.026Z,7.60
2023-03-16T01:26:23.007Z,7.60
2023-03-16T01:28:50.683Z,7.60
2023-03-16T01:31:18.273Z,7.60
2023-03-16T01:33:46.656Z,7.60
2023-03-16T01:36:20.294Z,7.70
2023-03-16T01:38:54.887Z,7.70
2023-03-16T01:41:25.945Z,7.80
2023-03-16T01:43:58.401Z,7.70
2023-03-16T01:46:29.280Z,7.80
2023-03-16T01:49:06.993Z,7.80
2023-03-16T01:51:43.814Z,7.80
2023-03-16T01:54:42.668Z,7.80
2023-03-16T01:57:19.495Z,7.90
2023-03-16T02:00:15.849Z,7.90
2023-03-16T02:02:50.987Z,8.00
2023-03-16T02:05:36.842Z,8.00
2023-03-16T02:08:06.677Z,8.00
2023-03-16T02:10:35.858Z,8.00
2023-03-16T02:13:04.025Z,8.00
2023-03-16T02:15:32.443Z,8.10
2023-03-16T02:18:00.798Z,8.10
2023-03-16T02:20:50.621Z,8.10
2023-03-16T02:23:21.121Z,8.10
2023-03-16T02:25:56.070Z,8.10
2023-03-16T02:28:55.596Z,8.10
2023-03-16T02:31:23.517Z,8.10
2023-03-16T02:33:54.082Z,8.20
2023-03-16T02:36:21.696Z,8.10
2023-03-16T02:38:49.457Z,8.20
2023-03-16T02:41:20.647Z,8.20
2023-03-16T02:44:05.198Z,8.20
2023-03-16T02:46:37.676Z,8.20
2023-03-16T02:49:30.086Z,8.30
2023-03-16T02:51:57.801Z,8.30
2023-03-16T02:54:25.671Z,8.30
2023-03-16T02:56:53.573Z,8.30
2023-03-16T02:59:22.322Z,8.30
2023-03-16T03:01:50.328Z,8.30
2023-03-16T03:04:17.902Z,8.30
2023-03-16T03:06:45.486Z,8.40
2023-03-16T03:09:13.298Z,8.40
2023-03-16T03:11:41.953Z,8.40
2023-03-16T03:14:09.591Z,8.40
2023-03-16T03:16:39.667Z,8.50
2023-03-16T03:19:07.881Z,8.50
2023-03-16T03:21:38.447Z,8.50
2023-03-16T03:24:08.239Z,8.50
2023-03-16T03:26:38.152Z,8.50
2023-03-16T03:29:09.342Z,8.60
2023-03-16T03:31:37.431Z,8.60
2023-03-16T03:34:06.769Z,8.60
2023-03-16T03:36:36.290Z,8.60
2023-03-16T03:39:05.263Z,8.70
2023-03-16T03:41:34.468Z,8.60
2023-03-16T03:44:05.082Z,8.70
2023-03-16T03:46:34.926Z,8.60
2023-03-16T03:49:05.235Z,8.70
2023-03-16T03:51:35.226Z,8.70
2023-03-16T03:54:06.808Z,8.70
2023-03-16T03:56:52.860Z,8.70
2023-03-16T03:59:21.156Z,8.70
2023-03-16T04:02:20.282Z,8.70
2023-03-16T04:04:54.024Z,8.80
2023-03-16T04:07:21.625Z,8.80
2023-03-16T04:09:51.776Z,8.80
2023-03-16T04:12:30.561Z,8.80
2023-03-16T04:14:58.218Z,8.80
2023-03-16T04:17:28.680Z,8.80
2023-03-16T04:19:59.426Z,8.80
2023-03-16T04:22:30.313Z,8.80
2023-03-16T04:24:58.036Z,8.90
2023-03-16T04:27:28.003Z,8.90
2023-03-16T04:29:58.645Z,8.90
2023-03-16T04:32:27.186Z,8.90
2023-03-16T04:34:56.638Z,8.80
2023-03-16T04:37:34.518Z,8.90
2023-03-16T04:40:11.097Z,8.90
2023-03-16T04:42:39.969Z,8.90
2023-03-16T04:45:09.317Z,8.90
2023-03-16T04:47:37.810Z,8.90
2023-03-16T04:50:07.220Z,8.90
2023-03-16T04:52:36.056Z,8.90
2023-03-16T04:55:03.974Z,8.90
2023-03-16T04:57:32.334Z,8.90
2023-03-16T05:00:09.810Z,8.90
2023-03-16T05:02:41.774Z,8.90
2023-03-16T05:05:09.749Z,9.00
2023-03-16T05:07:41.515Z,9.00
2023-03-16T05:10:11.988Z,9.00
2023-03-16T05:12:40.607Z,9.00
2023-03-16T05:15:09.625Z,9.00
2023-03-16T05:17:42.058Z,8.90
2023-03-16T05:20:15.488Z,9.00
2023-03-16T05:22:48.288Z,9.00
2023-03-16T05:25:24.033Z,9.00
2023-03-16T05:27:54.613Z,8.90
2023-03-16T05:30:31.635Z,9.00
2023-03-16T05:33:02.467Z,9.00
2023-03-16T05:35:31.032Z,9.00
2023-03-16T05:38:03.870Z,9.00
2023-03-16T05:40:33.896Z,8.90
2023-03-16T05:43:11.581Z,8.90
2023-03-16T05:45:44.934Z,8.90
2023-03-16T05:48:15.992Z,8.90
2023-03-16T05:50:50.850Z,8.80
2023-03-16T05:53:23.801Z,8.90
2023-03-16T05:55:54.747Z,8.80
2023-03-16T05:58:25.930Z,8.80
2023-03-16T06:00:55.320Z,8.70
2023-03-16T06:03:36.729Z,8.80
2023-03-16T06:06:06.059Z,8.80
2023-03-16T06:08:41.431Z,8.80
2023-03-16T06:11:12.572Z,8.80
2023-03-16T06:13:41.524Z,8.70
2023-03-16T06:16:11.648Z,8.70
2023-03-16T06:18:39.832Z,8.70
2023-03-16T06:21:07.805Z,8.70
2023-03-16T06:23:36.275Z,8.70
2023-03-16T06:26:05.987Z,8.70
2023-03-16T06:28:36.297Z,8.70
2023-03-16T06:31:04.258Z,8.80
2023-03-16T06:33:35.156Z,8.70
2023-03-16T06:36:06.704Z,8.70
2023-03-16T06:38:39.265Z,8.80
2023-03-16T06:43:40.242Z,8.80
2023-03-16T06:46:08.316Z,8.80
2023-03-16T06:48:36.218Z,8.80
2023-03-16T06:51:07.788Z,8.80
2023-03-16T06:53:37.143Z,9.70
2023-03-16T06:56:05.131Z,8.80
2023-03-16T06:58:37.916Z,8.90
2023-03-16T07:01:05.916Z,8.80
2023-03-16T07:03:33.943Z,8.80
2023-03-16T07:06:14.118Z,8.90
2023-03-16T07:08:43.076Z,8.90
2023-03-16T07:11:11.943Z,8.80
2023-03-16T07:13:39.538Z,8.90
2023-03-16T07:16:07.775Z,8.90
2023-03-16T07:18:38.024Z,8.90
2023-03-16T07:21:08.261Z,8.80
2023-03-16T07:23:35.808Z,8.80
2023-03-16T07:26:08.210Z,8.90
2023-03-16T07:28:41.973Z,8.80
2023-03-16T07:31:09.852Z,8.80
2023-03-16T07:33:40.609Z,8.90
2023-03-16T07:36:12.286Z,8.80
2023-03-16T07:38:46.069Z,8.90
2023-03-16T07:41:14.556Z,8.90
2023-03-16T07:43:42.453Z,8.90
2023-03-16T07:46:14.227Z,8.90
2023-03-16T07:48:43.748Z,8.90
2023-03-16T07:51:15.474Z,8.90
2023-03-16T07:53:47.799Z,8.90
2023-03-16T07:56:36.115Z,8.90
2023-03-16T07:59:13.494Z,9.00
2023-03-16T08:01:43.227Z,9.00
2023-03-16T08:04:12.411Z,9.00
2023-03-16T08:06:42.441Z,11.40
2023-03-16T08:09:10.082Z,9.10
2023-03-16T08:11:41.580Z,9.10
2023-03-16T08:14:09.178Z,9.20
2023-03-16T08:17:03.953Z,9.20
2023-03-16T08:19:32.586Z,9.20
2023-03-16T08:22:02.332Z,9.20
2023-03-16T08:24:40.790Z,9.30
2023-03-16T08:27:11.075Z,9.30
2023-03-16T08:29:42.385Z,9.20
2023-03-16T08:32:14.641Z,9.30
2023-03-16T08:34:46.065Z,9.30
2023-03-16T08:37:14.656Z,9.30
2023-03-16T08:39:43.819Z,9.30
2023-03-16T08:42:21.336Z,9.40
2023-03-16T08:44:57.456Z,9.40
2023-03-16T08:47:27.513Z,9.40
2023-03-16T08:49:55.413Z,9.40
2023-03-16T08:52:23.682Z,9.40
2023-03-16T08:55:02.291Z,9.50
2023-03-16T08:57:35.190Z,9.50
2023-03-16T09:00:10.201Z,9.50
2023-03-16T09:02:38.728Z,9.50
2023-03-16T09:05:09.244Z,9.50
2023-03-16T09:07:37.483Z,9.50
2023-03-16T09:10:18.998Z,9.50
2023-03-16T09:12:46.670Z,9.50
2023-03-16T09:15:16.654Z,9.50
2023-03-16T09:17:45.900Z,9.60
2023-03-16T09:20:22.171Z,9.60
2023-03-16T09:22:50.643Z,9.60
2023-03-16T09:25:18.740Z,9.60
2023-03-16T09:27:46.776Z,9.70
2023-03-16T09:30:15.284Z,9.70
2023-03-16T09:32:43.310Z,9.70
2023-03-16T09:35:20.329Z,9.80
2023-03-16T09:38:04.672Z,9.80
2023-03-16T09:40:36.036Z,9.90
2023-03-16T09:43:43.269Z,9.90
2023-03-16T09:46:24.438Z,9.90
2023-03-16T09:48:52.334Z,10.00
2023-03-16T09:51:53.889Z,10.50
2023-03-16T09:54:32.240Z,10.10
2023-03-16T09:57:03.374Z,10.10
2023-03-16T09:59:31.041Z,10.10
2023-03-16T10:02:38.910Z,10.20
2023-03-16T10:05:14.762Z,10.20
2023-03-16T10:07:51.190Z,10.20
2023-03-16T10:10:29.970Z,10.20
2023-03-16T10:13:01.024Z,10.30
2023-03-16T10:15:35.807Z,10.20
2023-03-16T10:18:29.484Z,10.30
2023-03-16T10:20:58.466Z,10.20
2023-03-16T10:23:26.666Z,10.30
2023-03-16T10:25:55.954Z,10.30
2023-03-16T10:28:26.331Z,10.40
2023-03-16T10:31:00.364Z,10.40
2023-03-16T10:33:29.404Z,10.50
2023-03-16T10:36:27.731Z,10.40
2023-03-16T10:39:05.034Z,10.50
2023-03-16T10:41:35.624Z,10.60
2023-03-16T10:44:21.602Z,10.60
2023-03-16T10:46:58.187Z,10.60
2023-03-16T10:49:30.117Z,10.60
2023-03-16T10:52:00.865Z,10.70
2023-03-16T10:54:35.585Z,10.70
2023-03-16T10:57:25.355Z,10.80
2023-03-16T10:59:59.627Z,10.90
2023-03-16T11:02:35.310Z,11.10
2023-03-16T11:05:25.960Z,11.20
2023-03-16T11:08:20.575Z,11.40
2023-03-16T11:11:00.319Z,11.40
2023-03-16T11:13:39.124Z,11.40
2023-03-16T11:16:26.508Z,11.30
2023-03-16T11:19:00.391Z,11.30
2023-03-16T11:21:55.965Z,11.20
2023-03-16T11:24:50.089Z,11.10
2023-03-16T11:27:32.115Z,11.10
2023-03-16T11:30:29.291Z,11.00
2023-03-16T11:33:00.933Z,11.10
2023-03-16T11:35:34.814Z,11.10
2023-03-16T11:38:34.625Z,11.20
2023-03-16T11:41:11.534Z,11.30
2023-03-16T11:43:51.034Z,11.40
2023-03-16T11:46:30.607Z,11.70
2023-03-16T11:49:19.684Z,11.80
2023-03-16T11:52:03.722Z,11.80
2023-03-16T11:54:48.800Z,11.80
2023-03-16T11:57:53.983Z,11.80
2023-03-16T12:00:52.454Z,11.90
2023-03-16T12:03:45.931Z,11.90
2023-03-16T12:06:38.635Z,11.90
2023-03-16T12:09:10.626Z,11.90
2023-03-16T12:12:09.128Z,11.80
2023-03-16T12:14:44.696Z,11.70
2023-03-16T12:17:17.991Z,11.80
2023-03-16T12:20:07.428Z,11.80
2023-03-16T12:22:49.720Z,11.80
2023-03-16T12:25:32.456Z,11.80
2023-03-16T12:28:16.810Z,11.70
2023-03-16T12:31:05.890Z,11.70
2023-03-16T12:33:52.321Z,11.70
2023-03-16T12:36:40.020Z,11.60
2023-03-16T12:39:35.792Z,11.60
2023-03-16T12:42:15.576Z,11.60
2023-03-16T12:45:02.326Z,11.70
2023-03-16T12:47:57.929Z,11.70
2023-03-16T12:50:25.984Z,11.80
2023-03-16T12:52:54.344Z,11.80
2023-03-16T12:55:39.195Z,11.80
2023-03-16T12:58:08.751Z,11.70
2023-03-16T13:00:40.629Z,11.70
2023-03-16T13:03:20.064Z,11.70
2023-03-16T13:05:55.593Z,11.70
2023-03-16T13:08:23.551Z,11.70
2023-03-16T13:11:01.112Z,11.60
2023-03-16T13:13:29.050Z,11.60
2023-03-16T13:16:27.492Z,11.60
2023-03-16T13:18:55.413Z,11.60
2023-03-16T13:21:41.109Z,11.50
2023-03-16T13:24:21.641Z,11.50
2023-03-16T13:26:54.330Z,11.50
2023-03-16T13:29:26.355Z,11.50
2023-03-16T13:32:08.826Z,11.50
2023-03-16T13:34:46.539Z,11.50
2023-03-16T13:37:18.089Z,11.50
2023-03-16T13:39:58.509Z,11.50
2023-03-16T13:42:30.015Z,11.40
2023-03-16T13:44:58.404Z,11.40
2023-03-16T13:47:27.772Z,11.40
2023-03-16T13:50:03.279Z,11.40
2023-03-16T13:52:35.650Z,11.40
2023-03-16T13:55:12.055Z,11.40
2023-03-16T13:57:42.092Z,11.40
2023-03-16T14:00:24.801Z,11.40
2023-03-16T14:02:58.888Z,11.40
2023-03-16T14:05:30.485Z,11.30
2023-03-16T14:08:00.665Z,11.40
2023-03-16T14:10:35.434Z,11.40
2023-03-16T14:13:22.534Z,11.40
2023-03-16T14:15:50.668Z,11.40
2023-03-16T14:18:22.993Z,11.40
2023-03-16T14:20:55.466Z,11.30
2023-03-16T14:23:33.568Z,11.30
2023-03-16T14:26:05.380Z,11.30
2023-03-16T14:28:34.127Z,11.30
2023-03-16T14:31:06.741Z,11.30
2023-03-16T14:33:37.807Z,11.20
2023-03-16T14:36:17.646Z,11.20
2023-03-16T14:38:48.409Z,11.20
2023-03-16T14:41:24.319Z,11.20
2023-03-16T14:43:57.747Z,11.10
2023-03-16T14:46:42.397Z,11.10
2023-03-16T14:49:23.599Z,11.10
2023-03-16T14:51:53.927Z,11.00
2023-03-16T14:54:22.461Z,11.00
2023-03-16T14:57:05.616Z,11.00
2023-03-16T14:59:34.094Z,11.00
2023-03-16T15:02:04.313Z,10.90
2023-03-16T15:04:34.858Z,10.90
2023-03-16T15:07:16.384Z,10.90
2023-03-16T15:09:44.461Z,10.90
2023-03-16T15:12:17.996Z,10.80
2023-03-16T15:15:05.005Z,10.80
2023-03-16T15:17:33.593Z,10.80
2023-03-16T15:20:01.404Z,10.80
2023-03-16T15:22:32.585Z,10.80
2023-03-16T15:25:09.180Z,10.70
2023-03-16T15:27:37.381Z,10.70
2023-03-16T15:30:15.036Z,10.80
2023-03-16T15:32:42.858Z,10.70
2023-03-16T15:35:10.715Z,10.70
2023-03-16T15:40:24.956Z,10.70
2023-03-16T15:42:53.953Z,10.70
2023-03-16T15:45:22.992Z,10.70
2023-03-16T15:47:53.139Z,10.60
2023-03-16T15:50:25.532Z,10.60
2023-03-16T15:53:04.744Z,10.50
2023-03-16T15:55:47.387Z,10.50
2023-03-16T15:58:24.282Z,10.50
2023-03-16T16:00:57.884Z,10.30
2023-03-16T16:03:26.554Z,10.30
2023-03-16T16:05:54.620Z,10.30
2023-03-16T16:08:22.374Z,10.20
2023-03-16T16:10:50.898Z,10.20
2023-03-16T16:13:43.406Z,10.20
2023-03-16T16:16:17.788Z,10.20
2023-03-16T16:18:48.779Z,10.20
2023-03-16T16:21:19.210Z,10.10
2023-03-16T16:23:47.873Z,10.10
2023-03-16T16:26:51.915Z,10.10
2023-03-16T16:29:24.526Z,10.00
2023-03-16T16:31:52.776Z,10.10
2023-03-16T16:34:24.778Z,10.10
2023-03-16T16:36:57.181Z,10.10
2023-03-16T16:39:25.420Z,10.10
2023-03-16T16:41:55.356Z,10.00
2023-03-16T16:44:24.327Z,10.00
2023-03-16T16:46:52.898Z,10.00
2023-03-16T16:49:28.279Z,10.00
2023-03-16T16:54:28.014Z,10.00
2023-03-16T16:56:57.494Z,10.00
2023-03-16T16:59:27.340Z,10.00
2023-03-16T17:01:56.559Z,10.00
2023-03-16T17:04:27.131Z,9.90
2023-03-16T17:06:58.848Z,10.00
2023-03-16T17:09:28.044Z,9.90
2023-03-16T17:11:58.779Z,9.90
2023-03-16T17:14:28.392Z,9.90
2023-03-16T17:17:01.789Z,9.90
2023-03-16T17:19:29.640Z,9.90
2023-03-16T17:21:58.435Z,9.80
2023-03-16T17:24:26.090Z,9.90
2023-03-16T17:26:57.068Z,9.90
2023-03-16T17:29:33.476Z,9.90
2023-03-16T17:32:03.735Z,9.90
2023-03-16T17:34:33.949Z,9.90
2023-03-16T17:37:02.032Z,9.90
2023-03-16T17:39:32.560Z,9.90
2023-03-16T17:42:03.832Z,9.90
2023-03-16T17:44:39.430Z,9.80
2023-03-16T17:47:19.188Z,9.90
2023-03-16T17:49:48.851Z,9.90
2023-03-16T17:52:25.391Z,9.90
2023-03-16T17:54:54.390Z,9.90
2023-03-16T17:57:31.956Z,9.90
2023-03-16T18:00:01.764Z,9.90
2023-03-16T18:02:41.077Z,9.90
2023-03-16T18:05:32.243Z,9.90
2023-03-16T18:08:25.856Z,9.80
2023-03-16T18:10:59.561Z,9.90
2023-03-16T18:13:34.674Z,9.90
2023-03-16T18:16:05.012Z,9.90
2023-03-16T18:18:42.763Z,9.90
2023-03-16T18:21:25.206Z,9.90
2023-03-16T18:23:54.182Z,9.90
2023-03-16T18:26:23.921Z,9.90
2023-03-16T18:28:53.459Z,9.90
2023-03-16T18:31:27.632Z,9.80
2023-03-16T18:33:58.091Z,9.80
2023-03-16T18:36:32.190Z,9.90
2023-03-16T18:39:03.734Z,9.90
2023-03-16T18:41:36.093Z,9.90
2023-03-16T18:44:25.765Z,9.90
2023-03-16T18:47:01.217Z,9.90
2023-03-16T18:49:36.708Z,9.90
2023-03-16T18:52:12.592Z,9.90
2023-03-16T18:54:40.515Z,9.90
2023-03-16T18:57:23.183Z,9.90
2023-03-16T18:59:51.706Z,9.90
2023-03-16T19:02:37.443Z,9.20
2023-03-16T19:05:18.598Z,9.90
2023-03-16T19:07:48.750Z,9.90
2023-03-16T19:10:25.804Z,9.90
2023-03-16T19:12:54.656Z,10.00
2023-03-16T19:15:28.490Z,9.90
2023-03-16T19:17:56.860Z,10.00
2023-03-16T19:20:31.860Z,9.90
2023-03-16T19:23:22.986Z,9.90
2023-03-16T19:25:51.489Z,10.00
2023-03-16T19:28:34.081Z,10.00
2023-03-16T19:31:16.894Z,10.00
2023-03-16T19:33:45.029Z,9.90
2023-03-16T19:36:30.353Z,9.90
2023-03-16T19:38:58.960Z,10.00
2023-03-16T19:41:30.895Z,10.00
2023-03-16T19:44:18.790Z,9.90
2023-03-16T19:46:47.092Z,10.00
2023-03-16T19:49:23.760Z,10.00
2023-03-16T19:51:52.536Z,10.00
2023-03-16T19:54:22.152Z,10.00
2023-03-16T19:56:51.744Z,10.00
2023-03-16T19:59:20.233Z,10.00
2023-03-16T20:01:48.462Z,10.00
2023-03-16T20:04:23.313Z,10.00
2023-03-16T20:06:51.346Z,10.00
2023-03-16T20:09:19.138Z,10.00
2023-03-16T20:11:48.484Z,10.00
2023-03-16T20:14:23.767Z,10.10
2023-03-16T20:16:53.251Z,10.00
2023-03-16T20:19:22.364Z,10.00
2023-03-16T20:21:50.422Z,10.00
2023-03-16T20:24:20.937Z,10.00
2023-03-16T20:26:51.460Z,10.00
2023-03-16T20:29:33.114Z,10.00
2023-03-16T20:32:01.449Z,10.00
2023-03-16T20:34:33.680Z,10.00
2023-03-16T20:37:01.305Z,10.00
2023-03-16T20:39:31.752Z,10.00
2023-03-16T20:41:59.433Z,10.00
2023-03-16T20:44:30.602Z,10.00
2023-03-16T20:46:58.211Z,10.00
2023-03-16T20:49:31.424Z,10.10
2023-03-16T20:52:00.355Z,10.10
2023-03-16T20:54:27.963Z,10.00
2023-03-16T20:56:55.684Z,10.00
2023-03-16T20:59:28.316Z,10.00
2023-03-16T21:01:56.097Z,10.00
2023-03-16T21:04:27.309Z,10.00
2023-03-16T21:06:57.159Z,10.00
2023-03-16T21:09:24.901Z,9.90
2023-03-16T21:11:52.743Z,9.90
2023-03-16T21:14:24.753Z,9.90
2023-03-16T21:16:53.996Z,9.90
2023-03-16T21:19:23.404Z,9.90
2023-03-16T21:21:51.643Z,9.90
2023-03-16T21:24:21.952Z,10.00
2023-03-16T21:26:49.638Z,10.00
2023-03-16T21:29:21.953Z,10.00
2023-03-16T21:31:50.026Z,10.00
2023-03-16T21:34:30.935Z,10.00
2023-03-16T21:37:12.249Z,10.00
2023-03-16T21:39:40.611Z,10.00
2023-03-16T21:42:08.760Z,10.00
2023-03-16T21:44:36.559Z,10.00
2023-03-16T21:47:18.816Z,10.00
2023-03-16T21:49:46.407Z,10.00
2023-03-16T21:52:28.247Z,10.00
2023-03-16T21:54:57.812Z,10.00
2023-03-16T21:57:25.710Z,10.00
2023-03-16T21:59:53.396Z,10.00
2023-03-16T22:02:24.507Z,10.10
2023-03-16T22:04:53.037Z,10.10
2023-03-16T22:07:23.138Z,10.10
2023-03-16T22:09:51.153Z,10.00
2023-03-16T22:12:18.764Z,10.00
2023-03-16T22:14:46.500Z,10.00
2023-03-16T22:17:24.967Z,10.00
2023-03-16T22:19:53.182Z,10.00
2023-03-16T22:22:21.264Z,10.00
2023-03-16T22:24:48.874Z,9.90
2023-03-16T22:27:21.530Z,9.90
2023-03-16T22:29:51.101Z,9.90
2023-03-16T22:32:21.909Z,9.90
2023-03-16T22:34:56.189Z,9.70
2023-03-16T22:37:28.972Z,9.80
2023-03-16T22:39:59.961Z,9.70
2023-03-16T22:42:37.142Z,9.70
2023-03-16T22:45:18.818Z,9.70
2023-03-16T22:47:47.859Z,9.70
2023-03-16T22:50:17.924Z,9.70
2023-03-16T22:52:52.210Z,9.70
2023-03-16T22:55:23.533Z,9.70
2023-03-16T22:58:02.832Z,9.70
2023-03-16T23:00:31.400Z,9.70
2023-03-16T23:02:59.339Z,9.70
2023-03-16T23:05:32.044Z,9.70
2023-03-16T23:08:02.619Z,9.80
2023-03-16T23:10:31.472Z,9.80
2023-03-16T23:13:00.614Z,9.90
2023-03-16T23:15:31.063Z,9.90
2023-03-16T23:17:58.919Z,9.90
2023-03-16T23:20:33.616Z,9.90
2023-03-16T23:23:01.261Z,9.90
2023-03-16T23:25:28.892Z,9.90
2023-03-16T23:27:58.538Z,9.90
2023-03-16T23:30:26.608Z,9.90
2023-03-16T23:32:55.154Z,9.90
2023-03-16T23:35:25.461Z,9.90
2023-03-16T23:37:54.711Z,9.90
2023-03-16T23:40:23.895Z,9.90
2023-03-16T23:42:53.484Z,9.90
2023-03-16T23:45:38.257Z,9.90
2023-03-16T23:48:13.306Z,9.90
2023-03-16T23:50:43.469Z,9.90
2023-03-16T23:53:15.156Z,9.90
2023-03-16T23:55:43.765Z,9.90
2023-03-16T23:58:12.117Z,9.90
